Time;durP1;ratioP1;P1;durP2;ratioP2;P2;SDS_P1;SDS_P2;PMS_P1;PMS_P2;Temp;Humidity;BMP_temperature;BMP_pressure;BME280_temperature;BME280_humidity;BME280_pressure;Samples;Min_cycle;Max_cycle;Signal;HPM_P1;HPM_P2
2022/01/10 00:01:08;;;;;;;29.15;19.20;;;1.90;95.20;;;;;;5015159;28;20037;-68
2022/01/10 00:03:34;;;;;;;31.75;20.73;;;1.90;95.10;;;;;;5015295;28;20025;-67
2022/01/10 00:05:59;;;;;;;32.53;21.63;;;2.00;94.90;;;;;;5018344;28;20404;-68
2022/01/10 00:08:25;;;;;;;37.03;23.17;;;2.10;94.90;;;;;;5016825;28;20079;-68
2022/01/10 00:10:51;;;;;;;37.22;23.73;;;2.10;94.20;;;;;;5022169;28;20672;-67
2022/01/10 00:13:17;;;;;;;40.08;24.40;;;2.10;93.70;;;;;;5018065;28;20037;-68
2022/01/10 00:15:44;;;;;;;43.85;25.00;;;2.20;93.40;;;;;;5020110;28;20033;-68
2022/01/10 00:18:10;;;;;;;40.55;24.65;;;2.20;93.30;;;;;;5019840;28;20037;-68
2022/01/10 00:20:36;;;;;;;47.28;28.92;;;2.20;93.80;;;;;;5021389;28;20041;-68
2022/01/10 00:23:02;;;;;;;59.17;33.78;;;2.10;93.70;;;;;;5018394;28;20469;-68
2022/01/10 00:25:28;;;;;;;67.03;37.80;;;2.20;93.10;;;;;;5019213;28;20040;-68
2022/01/10 00:27:54;;;;;;;62.38;37.13;;;2.20;93.10;;;;;;5019782;28;20029;-68
2022/01/10 00:30:22;;;;;;;62.42;37.65;;;2.30;93.10;;;;;;5015777;28;20037;-68
2022/01/10 00:32:48;;;;;;;70.90;42.03;;;2.30;93.20;;;;;;5018668;28;20079;-68
2022/01/10 00:35:14;;;;;;;67.00;39.42;;;2.30;93.20;;;;;;5019275;28;20037;-67
2022/01/10 00:37:42;;;;;;;58.72;36.00;;;2.30;93.40;;;;;;5021273;28;20037;-68
2022/01/10 00:40:09;;;;;;;54.08;33.20;;;2.30;93.40;;;;;;5015842;28;20054;-68
2022/01/10 00:42:36;;;;;;;42.05;27.05;;;2.30;93.50;;;;;;5019974;28;20044;-68
2022/01/10 00:45:12;;;;;;;49.63;28.10;;;2.30;93.80;;;;;;5020363;28;20026;-68
2022/01/10 00:47:38;;;;;;;37.70;22.25;;;2.30;94.20;;;;;;5016095;28;20057;-69
2022/01/10 00:50:04;;;;;;;37.05;22.60;;;2.30;94.30;;;;;;5014412;28;20052;-69
2022/01/10 00:52:29;;;;;;;36.58;21.92;;;2.20;94.20;;;;;;5018680;28;20103;-69
2022/01/10 00:54:55;;;;;;;31.50;21.17;;;2.20;94.10;;;;;;5019103;28;20029;-68
2022/01/10 00:57:21;;;;;;;34.72;23.75;;;2.20;93.80;;;;;;5018838;28;20400;-68
2022/01/10 00:59:46;;;;;;;38.95;26.08;;;2.20;93.90;;;;;;5018247;28;20045;-68
2022/01/10 01:02:12;;;;;;;38.95;25.25;;;1.80;94.50;;;;;;5019509;28;20029;-68
2022/01/10 01:04:38;;;;;;;44.00;27.05;;;1.60;95.00;;;;;;5019643;28;20049;-68
2022/01/10 01:07:03;;;;;;;41.83;26.45;;;1.60;95.30;;;;;;5019546;28;20056;-69
2022/01/10 01:09:31;;;;;;;39.80;26.05;;;1.50;95.40;;;;;;5020298;28;20124;-68
2022/01/10 01:14:51;;;;;;;31.75;21.33;;;1.50;95.80;;;;;;5017051;28;20107;-69
2022/01/10 01:25:10;;;;;;;29.10;19.15;;;1.30;96.70;;;;;;5019488;28;20041;-69
2022/01/10 01:27:36;;;;;;;28.55;18.23;;;1.30;96.00;;;;;;5019113;28;20065;-69
2022/01/10 01:30:04;;;;;;;27.92;17.73;;;1.20;96.10;;;;;;5017362;28;20029;-69
2022/01/10 01:32:30;;;;;;;30.38;19.58;;;1.00;96.50;;;;;;5016421;28;20032;-69
2022/01/10 01:35:02;;;;;;;31.83;19.48;;;0.80;96.60;;;;;;5016456;28;20034;-68
2022/01/10 01:37:29;;;;;;;33.53;20.10;;;0.90;96.60;;;;;;5016379;28;20404;-69
2022/01/10 01:39:55;;;;;;;34.13;20.25;;;1.00;96.50;;;;;;5015726;28;20038;-68
2022/01/10 01:42:34;;;;;;;32.88;21.58;;;1.00;96.40;;;;;;5020546;28;20095;-68
2022/01/10 01:45:03;;;;;;;32.70;19.92;;;1.00;96.50;;;;;;5016843;28;20037;-67
2022/01/10 01:47:28;;;;;;;33.47;20.95;;;0.90;96.60;;;;;;5016558;28;20056;-68
2022/01/10 01:49:58;;;;;;;34.83;21.27;;;0.80;96.70;;;;;;5017951;28;20496;-69
2022/01/10 01:52:24;;;;;;;32.17;19.83;;;0.80;96.80;;;;;;5019807;28;20034;-67
2022/01/10 01:54:50;;;;;;;35.22;21.23;;;0.70;97.10;;;;;;5018855;28;20148;-68
2022/01/10 01:57:16;;;;;;;31.10;20.75;;;0.50;97.20;;;;;;5020437;28;20125;-69
2022/01/10 01:59:41;;;;;;;31.95;21.75;;;0.50;97.40;;;;;;5019662;28;20551;-69
2022/01/10 02:02:07;;;;;;;34.60;21.70;;;0.50;97.40;;;;;;5019205;28;20021;-68
2022/01/10 02:04:33;;;;;;;49.28;27.40;;;0.50;97.40;;;;;;5019490;28;20551;-69
2022/01/10 02:06:58;;;;;;;36.58;22.73;;;0.60;97.40;;;;;;5017619;28;20046;-68
2022/01/10 02:09:24;;;;;;;43.35;25.80;;;0.80;97.20;;;;;;5019418;28;20064;-69
2022/01/10 02:11:53;;;;;;;48.72;25.52;;;1.00;96.70;;;;;;5015206;28;20021;-69
2022/01/10 02:14:18;;;;;;;43.38;25.48;;;1.20;96.30;;;;;;5019531;28;20026;-69
2022/01/10 02:16:52;;;;;;;43.90;25.25;;;1.40;96.00;;;;;;5013150;28;20026;-68
2022/01/10 02:19:18;;;;;;;49.67;26.27;;;1.50;95.70;;;;;;5017444;28;20086;-68
2022/01/10 02:21:44;;;;;;;53.42;28.23;;;1.60;95.40;;;;;;5014529;28;20034;-69
2022/01/10 02:24:09;;;;;;;41.35;25.05;;;1.70;95.20;;;;;;5014836;28;20065;-69
2022/01/10 02:26:37;;;;;;;43.03;25.40;;;1.70;95.00;;;;;;5019793;28;20437;-69
2022/01/10 02:29:04;;;;;;;35.85;21.83;;;1.80;95.00;;;;;;5015173;28;20044;-68
2022/01/10 02:31:29;;;;;;;42.17;23.90;;;1.80;94.60;;;;;;5019337;28;20096;-69
2022/01/10 02:33:57;;;;;;;36.05;22.50;;;1.70;94.60;;;;;;5020219;28;20403;-69
2022/01/10 02:36:27;;;;;;;47.50;24.55;;;1.80;94.60;;;;;;5024590;28;20151;-69
2022/01/10 02:38:54;;;;;;;39.63;23.85;;;1.80;94.50;;;;;;5019961;28;20111;-70
2022/01/10 02:41:20;;;;;;;41.92;26.63;;;1.90;94.50;;;;;;5019915;28;20021;-69
2022/01/10 02:43:46;;;;;;;55.28;37.38;;;1.90;94.60;;;;;;5023318;28;20108;-69
2022/01/10 02:46:12;;;;;;;77.50;45.03;;;2.00;94.60;;;;;;5021117;28;20124;-69
2022/01/10 02:48:37;;;;;;;87.47;49.70;;;2.00;94.50;;;;;;5017667;28;20053;-69
2022/01/10 02:51:03;;;;;;;92.82;51.65;;;2.00;94.50;;;;;;5022079;28;20029;-69
2022/01/10 02:53:29;;;;;;;81.35;49.30;;;2.00;94.50;;;;;;5018524;28;20029;-68
2022/01/10 02:55:54;;;;;;;74.07;41.58;;;2.00;94.70;;;;;;5019404;28;20018;-69
2022/01/10 02:58:20;;;;;;;49.15;30.83;;;2.10;94.50;;;;;;5020796;28;20182;-68
2022/01/10 03:00:45;;;;;;;47.25;30.70;;;2.10;94.40;;;;;;5023183;28;20787;-69
2022/01/10 03:03:11;;;;;;;40.45;24.85;;;2.10;94.10;;;;;;5012571;28;20034;-68
2022/01/10 03:05:37;;;;;;;34.67;22.52;;;2.20;93.90;;;;;;5015534;28;20029;-68
2022/01/10 03:08:06;;;;;;;37.42;22.05;;;2.30;93.50;;;;;;5030342;28;20065;-68
2022/01/10 03:10:32;;;;;;;34.60;20.33;;;2.30;93.30;;;;;;5016631;28;20128;-68
2022/01/10 03:12:59;;;;;;;37.33;22.55;;;2.30;93.10;;;;;;5016915;28;20051;-68
2022/01/10 03:15:26;;;;;;;36.10;23.15;;;2.40;93.10;;;;;;5018010;28;20025;-68
2022/01/10 03:17:52;;;;;;;40.13;26.40;;;2.30;93.20;;;;;;5018544;28;20066;-69
2022/01/10 03:20:18;;;;;;;40.88;27.13;;;2.30;93.50;;;;;;5016430;28;20112;-69
2022/01/10 03:22:44;;;;;;;41.05;27.33;;;2.20;93.80;;;;;;5015593;28;20100;-68
2022/01/10 03:25:10;;;;;;;34.08;21.88;;;2.10;94.30;;;;;;5017362;28;20168;-69
2022/01/10 03:27:36;;;;;;;31.88;20.58;;;2.10;94.40;;;;;;5020901;28;20431;-68
2022/01/10 03:30:03;;;;;;;34.00;20.90;;;2.00;94.40;;;;;;5018841;28;20495;-69
2022/01/10 03:32:28;;;;;;;32.58;21.05;;;2.00;94.40;;;;;;5016913;28;20061;-69
2022/01/10 03:34:54;;;;;;;35.53;22.42;;;1.90;94.50;;;;;;5015893;28;20507;-69
2022/01/10 03:37:20;;;;;;;32.92;22.25;;;1.70;94.80;;;;;;5023597;28;20029;-69
2022/01/10 03:39:45;;;;;;;30.67;21.52;;;1.60;95.20;;;;;;5017007;28;20037;-69
2022/01/10 03:42:12;;;;;;;34.83;21.80;;;1.50;95.40;;;;;;5017028;28;20033;-69
2022/01/10 03:44:38;;;;;;;30.80;19.85;;;1.50;95.70;;;;;;5014106;28;20029;-70
2022/01/10 03:47:03;;;;;;;26.48;17.98;;;1.30;96.10;;;;;;5015916;28;20061;-68
2022/01/10 03:49:29;;;;;;;27.17;18.73;;;1.10;96.10;;;;;;5015545;28;20064;-68
2022/01/10 03:51:55;;;;;;;32.25;20.33;;;1.00;96.40;;;;;;5016718;28;20025;-68
2022/01/10 03:54:20;;;;;;;30.98;19.60;;;1.10;96.60;;;;;;5014168;28;20309;-69
2022/01/10 03:56:47;;;;;;;30.08;18.20;;;1.20;96.70;;;;;;5015257;28;20497;-69
2022/01/10 03:59:12;;;;;;;27.70;19.27;;;1.40;96.50;;;;;;5016101;28;20057;-68
2022/01/10 04:01:39;;;;;;;37.22;22.60;;;1.50;96.30;;;;;;5016273;28;20109;-68
2022/01/10 04:04:07;;;;;;;45.63;25.60;;;1.60;96.10;;;;;;5014774;28;20025;-68
2022/01/10 04:06:34;;;;;;;40.95;21.98;;;1.70;96.00;;;;;;5013820;28;20566;-67
2022/01/10 04:09:03;;;;;;;37.85;21.88;;;1.70;95.70;;;;;;5013809;28;20079;-69
2022/01/10 04:11:29;;;;;;;28.25;19.90;;;1.80;95.40;;;;;;5014543;28;20106;-69
2022/01/10 04:13:54;;;;;;;30.63;19.73;;;1.80;95.60;;;;;;5013625;28;20021;-68
2022/01/10 04:16:20;;;;;;;32.03;21.05;;;1.80;95.40;;;;;;5014870;28;20431;-69
2022/01/10 04:18:46;;;;;;;28.10;19.95;;;1.90;95.50;;;;;;5014834;28;20117;-69
2022/01/10 04:21:11;;;;;;;31.60;19.85;;;2.00;95.00;;;;;;5015587;28;20738;-68
2022/01/10 04:23:37;;;;;;;30.00;20.30;;;2.00;94.80;;;;;;5016832;28;20481;-68
2022/01/10 04:26:03;;;;;;;30.13;19.50;;;2.00;94.40;;;;;;5023407;28;20670;-68
2022/01/10 04:28:29;;;;;;;27.95;19.40;;;2.10;94.40;;;;;;5019297;28;20120;-68
2022/01/10 04:30:55;;;;;;;28.98;19.88;;;2.10;94.20;;;;;;5017847;28;20044;-68
2022/01/10 04:33:21;;;;;;;30.73;19.08;;;2.10;93.90;;;;;;5022157;28;20033;-69
2022/01/10 04:35:48;;;;;;;29.38;18.90;;;2.10;93.90;;;;;;5021094;28;20057;-68
2022/01/10 04:38:17;;;;;;;31.92;19.85;;;2.00;93.80;;;;;;5018790;28;20098;-69
2022/01/10 04:40:43;;;;;;;28.10;19.10;;;1.90;93.90;;;;;;5019297;28;20104;-70
2022/01/10 04:43:08;;;;;;;30.63;19.85;;;1.90;94.30;;;;;;5016544;28;20053;-69
2022/01/10 04:45:34;;;;;;;28.45;19.52;;;1.90;94.70;;;;;;5017572;28;20034;-69
2022/01/10 04:48:00;;;;;;;31.90;20.27;;;1.90;94.60;;;;;;5018807;28;20049;-69
2022/01/10 04:50:53;;;;;;;31.55;20.02;;;2.00;94.50;;;;;;5021363;28;20029;-69
2022/01/10 04:53:14;;;;;;;27.35;19.10;;;2.00;94.40;;;;;;5017937;28;20041;-69
2022/01/10 04:55:39;;;;;;;32.38;19.50;;;2.00;94.50;;;;;;5021339;28;20566;-69
2022/01/10 04:58:05;;;;;;;31.27;20.52;;;2.10;94.40;;;;;;5015330;28;20514;-69
2022/01/10 05:00:31;;;;;;;55.17;30.55;;;2.10;94.40;;;;;;5020700;28;20056;-69
2022/01/10 05:02:56;;;;;;;53.85;30.52;;;2.10;94.20;;;;;;5013782;28;20804;-69
2022/01/10 05:05:22;;;;;;;46.05;26.42;;;2.20;94.00;;;;;;5023127;28;20112;-69
2022/01/10 05:07:48;;;;;;;54.72;29.65;;;2.20;94.00;;;;;;5017295;28;20038;-69
2022/01/10 05:10:13;;;;;;;52.25;30.10;;;2.20;94.20;;;;;;5019995;28;20047;-69
2022/01/10 05:12:39;;;;;;;49.72;29.02;;;2.20;94.00;;;;;;5020492;28;20049;-69
2022/01/10 05:15:05;;;;;;;41.53;25.90;;;2.10;94.30;;;;;;5019445;28;20039;-68
2022/01/10 05:17:31;;;;;;;44.33;26.02;;;2.10;94.40;;;;;;5017212;28;20033;-70
2022/01/10 05:19:57;;;;;;;43.50;26.33;;;2.00;94.70;;;;;;5018043;28;20033;-70
2022/01/10 05:22:25;;;;;;;49.42;29.67;;;2.00;94.60;;;;;;5017257;28;20051;-69
2022/01/10 05:24:51;;;;;;;34.55;22.40;;;2.10;94.40;;;;;;5021297;28;20042;-69
2022/01/10 05:27:16;;;;;;;34.28;21.35;;;2.00;94.90;;;;;;5015657;28;20060;-67
2022/01/10 05:29:42;;;;;;;31.63;19.67;;;1.70;95.70;;;;;;5015689;28;20025;-68
2022/01/10 05:32:08;;;;;;;27.60;18.55;;;1.60;96.10;;;;;;5018307;28;20030;-70
2022/01/10 05:34:33;;;;;;;29.27;17.73;;;1.60;96.20;;;;;;5017942;28;20065;-68
2022/01/10 05:36:59;;;;;;;26.08;16.92;;;1.70;96.00;;;;;;5015300;28;20033;-69
2022/01/10 05:39:25;;;;;;;29.98;17.83;;;1.70;95.90;;;;;;5019067;28;20132;-68
2022/01/10 05:41:50;;;;;;;24.02;16.52;;;1.70;95.90;;;;;;5014502;28;20034;-68
2022/01/10 05:44:16;;;;;;;26.00;16.48;;;1.70;96.00;;;;;;5016110;28;20073;-68
2022/01/10 05:46:42;;;;;;;26.77;17.15;;;1.60;96.10;;;;;;5017870;28;20025;-68
2022/01/10 05:49:12;;;;;;;28.33;17.77;;;1.70;96.20;;;;;;5013656;28;20029;-68
2022/01/10 05:51:38;;;;;;;25.65;16.52;;;1.70;95.90;;;;;;5017389;28;20037;-69
2022/01/10 05:54:06;;;;;;;25.05;16.35;;;1.70;95.80;;;;;;5017112;28;20435;-68
2022/01/10 05:56:33;;;;;;;23.60;16.98;;;1.70;95.60;;;;;;5017560;28;20018;-69
2022/01/10 05:59:02;;;;;;;25.75;16.65;;;1.70;95.70;;;;;;5015828;28;20042;-69
2022/01/10 06:01:29;;;;;;;29.20;15.95;;;1.70;95.80;;;;;;5015615;28;20034;-69
2022/01/10 06:03:55;;;;;;;27.40;16.80;;;1.70;95.90;;;;;;5018778;28;20034;-69
2022/01/10 06:06:20;;;;;;;25.60;17.23;;;1.70;96.00;;;;;;5016709;28;20108;-69
2022/01/10 06:08:46;;;;;;;26.58;16.92;;;1.60;96.10;;;;;;5016592;28;20121;-69
2022/01/10 06:11:12;;;;;;;28.50;17.48;;;1.60;96.30;;;;;;5017335;28;20108;-70
2022/01/10 06:13:41;;;;;;;26.05;17.70;;;1.60;96.20;;;;;;5016392;28;20029;-70
2022/01/10 06:16:06;;;;;;;31.65;20.00;;;1.60;96.20;;;;;;5013481;28;20029;-70
2022/01/10 06:18:32;;;;;;;28.63;20.00;;;1.60;96.00;;;;;;5015848;28;20034;-70
2022/01/10 06:20:58;;;;;;;27.00;18.25;;;1.60;96.10;;;;;;5014883;28;20141;-70
2022/01/10 06:23:25;;;;;;;28.42;18.65;;;1.60;96.30;;;;;;5014779;28;20038;-69
2022/01/10 06:25:51;;;;;;;28.17;18.90;;;1.70;96.20;;;;;;5016383;28;20021;-70
2022/01/10 06:28:18;;;;;;;26.15;17.92;;;1.70;96.20;;;;;;5015201;28;20056;-69
2022/01/10 06:30:44;;;;;;;25.20;16.52;;;1.60;96.10;;;;;;5017270;28;20033;-70
2022/01/10 06:33:10;;;;;;;27.17;17.92;;;1.50;96.20;;;;;;5014319;28;20065;-69
2022/01/10 06:35:36;;;;;;;28.10;18.67;;;1.50;96.20;;;;;;5013793;28;20519;-69
2022/01/10 06:38:01;;;;;;;29.92;18.63;;;1.50;96.50;;;;;;5013418;28;20037;-69
2022/01/10 06:40:27;;;;;;;30.65;19.15;;;1.50;96.50;;;;;;5014959;28;20033;-69
2022/01/10 06:42:53;;;;;;;30.30;19.42;;;1.50;96.70;;;;;;5017961;28;20026;-69
2022/01/10 06:45:19;;;;;;;34.08;20.33;;;1.50;96.80;;;;;;5019516;28;20026;-69
2022/01/10 06:47:44;;;;;;;33.15;21.13;;;1.50;96.70;;;;;;5018390;28;20145;-70
2022/01/10 06:50:10;;;;;;;26.05;18.30;;;1.50;96.70;;;;;;5019547;28;20583;-68
2022/01/10 06:52:36;;;;;;;27.95;18.60;;;1.50;96.40;;;;;;5019529;28;20033;-70
2022/01/10 06:55:02;;;;;;;27.85;16.70;;;1.50;96.30;;;;;;5011581;28;20060;-70
2022/01/10 06:57:28;;;;;;;25.65;16.45;;;1.40;96.20;;;;;;5017549;28;20050;-69
2022/01/10 06:59:54;;;;;;;24.13;16.23;;;1.40;96.30;;;;;;5013517;28;20065;-70
2022/01/10 07:02:20;;;;;;;22.30;15.50;;;1.40;96.40;;;;;;5017553;28;20503;-70
2022/01/10 07:04:46;;;;;;;25.58;15.88;;;1.40;96.40;;;;;;5016972;28;20662;-70
2022/01/10 07:07:11;;;;;;;24.90;16.80;;;1.40;96.30;;;;;;5014415;28;20113;-71
2022/01/10 07:09:37;;;;;;;23.17;16.63;;;1.30;96.30;;;;;;5019621;28;20514;-70
2022/01/10 07:12:05;;;;;;;26.90;17.10;;;1.30;96.30;;;;;;5017136;28;20065;-69
2022/01/10 07:14:33;;;;;;;27.75;18.83;;;1.30;96.10;;;;;;5015223;28;20747;-70
2022/01/10 07:16:59;;;;;;;28.17;18.70;;;1.30;96.20;;;;;;5017530;28;20477;-70
2022/01/10 07:19:25;;;;;;;27.10;19.30;;;1.40;96.20;;;;;;5018525;28;20048;-70
2022/01/10 07:21:50;;;;;;;29.05;19.75;;;1.40;96.00;;;;;;5017783;28;20853;-69
2022/01/10 07:24:17;;;;;;;25.75;17.95;;;1.40;95.90;;;;;;5018226;28;20463;-70
2022/01/10 07:26:43;;;;;;;26.80;18.60;;;1.40;96.00;;;;;;5019323;28;20080;-70
2022/01/10 07:29:11;;;;;;;27.35;17.25;;;1.40;95.80;;;;;;5020151;28;20030;-70
2022/01/10 07:31:37;;;;;;;31.00;19.42;;;1.50;95.80;;;;;;5019403;28;20149;-69
2022/01/10 07:34:04;;;;;;;27.65;18.83;;;1.50;95.90;;;;;;5017854;28;20030;-70
2022/01/10 07:36:30;;;;;;;29.95;19.58;;;1.50;95.90;;;;;;5020299;28;20036;-70
2022/01/10 07:38:56;;;;;;;35.28;22.38;;;1.60;96.00;;;;;;5017052;28;20041;-69
2022/01/10 07:41:21;;;;;;;36.45;23.02;;;1.60;95.90;;;;;;5014484;28;20029;-70
2022/01/10 07:43:48;;;;;;;35.85;23.00;;;1.70;96.00;;;;;;5017070;28;20037;-70
2022/01/10 07:46:14;;;;;;;33.22;22.50;;;1.70;95.90;;;;;;5016879;28;20022;-70
2022/01/10 07:48:42;;;;;;;35.47;21.45;;;1.80;95.80;;;;;;5018446;28;20140;-70
2022/01/10 07:51:09;;;;;;;36.22;22.02;;;1.90;95.70;;;;;;5022406;28;20124;-70
2022/01/10 07:53:39;;;;;;;37.03;22.55;;;2.00;95.60;;;;;;5017769;28;20116;-70
2022/01/10 07:56:06;;;;;;;34.22;22.40;;;2.10;95.30;;;;;;5022364;28;20045;-70
2022/01/10 07:58:32;;;;;;;43.90;27.73;;;2.20;95.10;;;;;;5020809;28;20060;-69
2022/01/10 08:00:58;;;;;;;52.78;35.30;;;2.20;94.80;;;;;;5016872;28;20033;-70
2022/01/10 08:03:24;;;;;;;78.75;49.10;;;2.20;94.60;;;;;;5018217;28;20408;-71
2022/01/10 08:05:50;;;;;;;40.13;24.85;;;2.20;94.60;;;;;;5014318;28;20041;-71
2022/01/10 08:08:15;;;;;;;37.33;24.95;;;2.20;94.70;;;;;;5015545;28;20044;-70
2022/01/10 08:10:41;;;;;;;34.70;23.63;;;2.20;94.70;;;;;;5019406;28;20033;-69
2022/01/10 08:13:07;;;;;;;41.03;28.25;;;2.20;94.60;;;;;;5017995;28;20033;-69
2022/01/10 08:15:33;;;;;;;44.60;30.52;;;2.20;94.50;;;;;;5018240;28;20924;-69
2022/01/10 08:17:58;;;;;;;58.58;42.90;;;2.20;94.70;;;;;;5016462;28;20071;-69
2022/01/10 08:20:25;;;;;;;43.45;28.95;;;2.20;94.40;;;;;;5016413;28;20127;-69
2022/01/10 08:22:50;;;;;;;40.10;27.83;;;2.30;94.20;;;;;;5010844;28;20116;-69
2022/01/10 08:25:16;;;;;;;31.75;22.42;;;2.30;94.20;;;;;;5014597;28;20587;-71
2022/01/10 08:27:42;;;;;;;38.95;25.55;;;2.30;94.10;;;;;;5014315;28;20109;-70
2022/01/10 08:30:08;;;;;;;37.67;24.05;;;2.30;94.10;;;;;;5020387;28;20068;-70
2022/01/10 08:32:34;;;;;;;34.88;24.58;;;2.40;94.20;;;;;;5020729;28;20523;-69
2022/01/10 08:34:59;;;;;;;34.13;22.48;;;2.60;93.80;;;;;;5022796;28;20030;-70
2022/01/10 08:37:25;;;;;;;35.53;22.83;;;2.60;93.20;;;;;;5013724;28;20478;-69
2022/01/10 08:39:51;;;;;;;35.28;24.40;;;2.70;93.00;;;;;;5020012;28;20043;-70
2022/01/10 08:42:22;;;;;;;32.65;22.90;;;2.80;92.90;;;;;;5019743;28;20025;-69
2022/01/10 08:44:48;;;;;;;36.10;23.67;;;2.80;92.70;;;;;;5017277;28;20511;-70
2022/01/10 08:47:15;;;;;;;36.17;23.02;;;2.80;93.10;;;;;;5020122;28;20573;-69
2022/01/10 08:49:41;;;;;;;28.70;21.17;;;2.90;93.00;;;;;;5014637;28;20088;-69
2022/01/10 08:52:07;;;;;;;32.20;21.92;;;3.10;92.50;;;;;;5016405;28;20619;-70
2022/01/10 08:54:33;;;;;;;29.30;20.85;;;3.30;92.20;;;;;;5017219;28;20033;-70
2022/01/10 08:57:00;;;;;;;30.75;22.55;;;3.40;92.10;;;;;;5009924;28;20032;-70
2022/01/10 08:59:28;;;;;;;32.55;20.55;;;3.60;91.70;;;;;;5018201;28;20037;-69
2022/01/10 09:01:57;;;;;;;32.17;22.48;;;3.70;91.20;;;;;;5012507;28;20102;-70
2022/01/10 09:04:23;;;;;;;34.53;20.92;;;3.90;91.30;;;;;;5020008;28;20033;-70
2022/01/10 09:06:51;;;;;;;28.52;19.98;;;4.00;91.00;;;;;;5002423;28;20572;-70
2022/01/10 09:09:18;;;;;;;31.17;20.23;;;3.90;90.80;;;;;;5018321;28;20056;-70
2022/01/10 09:11:45;;;;;;;33.78;20.52;;;3.90;90.60;;;;;;5016282;28;20037;-70
2022/01/10 09:14:12;;;;;;;28.85;20.27;;;4.00;90.60;;;;;;5016066;28;20051;-70
2022/01/10 09:16:39;;;;;;;30.25;19.83;;;4.00;90.40;;;;;;5014006;28;20064;-69
2022/01/10 09:19:04;;;;;;;33.83;22.27;;;4.10;90.60;;;;;;5018439;28;20502;-70
2022/01/10 09:21:30;;;;;;;30.27;20.25;;;4.10;90.40;;;;;;5020974;28;20029;-70
2022/01/10 09:23:56;;;;;;;31.40;20.20;;;4.10;90.30;;;;;;5014004;28;20038;-70
2022/01/10 09:26:23;;;;;;;27.65;19.30;;;4.20;90.20;;;;;;5020185;28;20857;-70
2022/01/10 09:28:49;;;;;;;32.70;20.08;;;4.20;90.40;;;;;;5014175;28;20133;-71
2022/01/10 09:31:15;;;;;;;29.73;20.42;;;4.30;90.30;;;;;;5016147;28;20564;-70
2022/01/10 09:33:42;;;;;;;36.92;26.90;;;4.20;89.70;;;;;;5016352;28;20029;-70
2022/01/10 09:36:09;;;;;;;31.65;21.45;;;4.10;90.10;;;;;;5018704;28;20041;-70
2022/01/10 09:38:35;;;;;;;30.92;20.02;;;4.00;90.10;;;;;;5019959;28;20084;-70
2022/01/10 09:41:01;;;;;;;27.60;18.55;;;4.00;90.10;;;;;;5015469;28;20033;-70
2022/01/10 09:43:27;;;;;;;29.42;19.10;;;4.00;90.10;;;;;;5018213;28;20035;-70
2022/01/10 09:45:55;;;;;;;27.10;17.73;;;3.90;90.30;;;;;;5019698;28;20025;-70
2022/01/10 09:48:22;;;;;;;27.98;19.58;;;3.80;90.40;;;;;;5018159;28;20137;-70
2022/01/10 09:50:48;;;;;;;26.42;18.15;;;3.80;90.50;;;;;;5017871;28;20390;-70
2022/01/10 09:53:17;;;;;;;28.73;20.48;;;3.80;90.60;;;;;;5017284;28;20030;-70
2022/01/10 09:55:43;;;;;;;24.58;16.70;;;3.80;90.50;;;;;;5017835;28;20445;-69
2022/01/10 09:58:09;;;;;;;26.48;17.13;;;3.80;90.40;;;;;;5017603;28;20076;-70
2022/01/10 10:00:35;;;;;;;25.65;17.90;;;3.90;90.40;;;;;;5018911;28;20427;-69
2022/01/10 10:03:01;;;;;;;22.88;16.30;;;3.90;90.20;;;;;;5019077;28;20120;-70
2022/01/10 10:05:27;;;;;;;23.70;15.77;;;3.90;90.10;;;;;;5015085;28;20069;-70
2022/01/10 10:07:53;;;;;;;25.88;17.55;;;3.90;90.20;;;;;;5015586;28;20457;-70
2022/01/10 10:10:21;;;;;;;23.98;16.60;;;3.90;90.20;;;;;;5017768;28;20029;-70
2022/01/10 10:12:48;;;;;;;25.15;17.08;;;4.00;90.20;;;;;;5016701;28;20029;-71
2022/01/10 10:15:17;;;;;;;21.58;14.88;;;4.00;90.10;;;;;;5018688;28;20258;-70
2022/01/10 10:17:44;;;;;;;23.33;15.27;;;4.00;90.00;;;;;;5019599;28;20058;-70
2022/01/10 10:20:11;;;;;;;22.60;15.02;;;4.10;90.30;;;;;;5017919;28;20112;-71
2022/01/10 10:22:39;;;;;;;18.77;14.43;;;4.10;90.00;;;;;;5019674;28;20056;-71
2022/01/10 10:25:07;;;;;;;18.65;13.90;;;4.20;90.00;;;;;;5014707;28;20036;-70
2022/01/10 10:27:41;;;;;;;14.30;10.35;;;4.20;89.80;;;;;;5017716;28;20033;-70
2022/01/10 10:30:20;;;;;;;16.85;12.13;;;4.20;88.20;;;;;;5019602;28;20025;-70
2022/01/10 10:32:47;;;;;;;19.23;12.55;;;4.30;87.50;;;;;;5016724;28;20034;-71
2022/01/10 10:35:14;;;;;;;202.30;83.80;;;4.30;88.00;;;;;;5017023;28;20075;-71
2022/01/10 10:37:43;;;;;;;35.47;21.05;;;4.30;88.00;;;;;;5019182;28;20033;-69
2022/01/10 10:40:14;;;;;;;15.40;11.52;;;4.40;86.80;;;;;;5018517;28;20124;-70
2022/01/10 10:42:42;;;;;;;13.70;9.70;;;4.50;85.00;;;;;;5018182;28;20076;-69
2022/01/10 10:45:11;;;;;;;15.20;10.52;;;4.40;85.30;;;;;;5012345;28;20080;-69
2022/01/10 10:47:40;;;;;;;11.88;8.30;;;4.50;85.80;;;;;;5017660;28;20416;-70
2022/01/10 10:50:07;;;;;;;10.73;6.97;;;4.60;85.30;;;;;;5016338;28;20100;-70
2022/01/10 10:52:36;;;;;;;9.80;6.90;;;4.60;85.10;;;;;;5022332;28;20048;-68
2022/01/10 10:55:15;;;;;;;10.85;7.45;;;4.70;84.90;;;;;;5024243;28;20128;-68
2022/01/10 10:57:42;;;;;;;10.15;7.13;;;4.80;84.30;;;;;;5023193;28;20029;-69
2022/01/10 11:00:15;;;;;;;8.90;5.63;;;4.80;83.80;;;;;;5019852;28;20036;-69
2022/01/10 11:02:42;;;;;;;6.70;5.20;;;4.80;81.90;;;;;;5020484;28;20030;-69
2022/01/10 11:05:08;;;;;;;7.40;4.88;;;4.90;82.30;;;;;;5023301;28;20029;-69
2022/01/10 11:07:35;;;;;;;9.68;5.18;;;4.90;80.10;;;;;;5023645;28;20439;-69
2022/01/10 11:10:04;;;;;;;7.25;4.63;;;4.90;80.00;;;;;;5022568;28;20786;-70
2022/01/10 11:12:31;;;;;;;7.80;5.20;;;4.90;79.70;;;;;;5022686;28;20042;-70
2022/01/10 11:14:59;;;;;;;7.90;4.80;;;5.00;80.40;;;;;;5020093;28;20037;-69
2022/01/10 11:17:26;;;;;;;7.93;4.80;;;5.10;79.00;;;;;;5023135;28;20057;-69
2022/01/10 11:20:19;;;;;;;8.25;5.93;;;5.10;78.80;;;;;;5019267;28;20052;-69
2022/01/10 11:22:50;;;;;;;7.70;5.03;;;5.10;79.10;;;;;;5017351;28;20022;-69
2022/01/10 11:25:28;;;;;;;7.63;5.47;;;5.20;77.80;;;;;;5019520;28;20030;-69
2022/01/10 11:27:57;;;;;;;9.68;6.20;;;5.20;78.50;;;;;;5022536;28;20056;-70
2022/01/10 11:30:34;;;;;;;10.60;6.97;;;5.20;78.10;;;;;;5018064;28;20508;-69
2022/01/10 11:33:07;;;;;;;13.48;6.68;;;5.20;77.90;;;;;;5016881;28;20068;-69
2022/01/10 11:35:36;;;;;;;8.15;5.90;;;5.20;77.60;;;;;;5019788;28;20045;-70
2022/01/10 11:38:23;;;;;;;8.52;6.22;;;5.10;78.10;;;;;;5019147;28;20028;-69
2022/01/10 11:41:05;;;;;;;10.05;5.97;;;5.20;78.30;;;;;;5017750;28;20053;-70
2022/01/10 11:43:49;;;;;;;8.27;6.13;;;5.20;77.70;;;;;;5018755;28;20062;-68
2022/01/10 11:46:17;;;;;;;9.23;5.68;;;5.30;77.90;;;;;;5017864;28;20034;-68
2022/01/10 11:48:50;;;;;;;7.90;5.80;;;5.30;76.60;;;;;;5020455;28;20065;-68
2022/01/10 11:51:21;;;;;;;9.63;6.32;;;5.30;76.80;;;;;;5020465;28;20033;-68
2022/01/10 11:53:53;;;;;;;8.25;5.95;;;5.30;76.70;;;;;;5016806;28;20033;-68
2022/01/10 11:56:26;;;;;;;9.30;6.20;;;5.30;76.10;;;;;;5018887;28;20030;-69
2022/01/10 11:59:19;;;;;;;8.38;6.10;;;5.40;76.90;;;;;;5018537;28;20484;-68
2022/01/10 12:01:59;;;;;;;10.40;7.03;;;5.50;76.80;;;;;;5015563;28;20128;-69
2022/01/10 12:04:26;;;;;;;9.52;6.25;;;5.50;76.70;;;;;;5017414;28;20025;-69
2022/01/10 12:06:53;;;;;;;8.98;5.90;;;5.50;76.40;;;;;;5016332;28;20033;-69
2022/01/10 12:09:19;;;;;;;9.02;6.47;;;5.60;76.20;;;;;;5019492;28;20120;-69
2022/01/10 12:11:46;;;;;;;8.02;5.50;;;5.60;75.80;;;;;;5019458;28;20029;-68
2022/01/10 12:14:13;;;;;;;9.68;6.22;;;5.70;74.80;;;;;;5019494;28;20032;-68
2022/01/10 12:16:39;;;;;;;9.05;6.60;;;5.70;76.00;;;;;;5020731;28;20096;-69
2022/01/10 12:19:07;;;;;;;7.63;5.57;;;5.80;74.20;;;;;;5019441;28;20396;-69
2022/01/10 12:21:33;;;;;;;6.93;4.93;;;5.70;74.80;;;;;;5018937;28;20116;-69
2022/01/10 12:23:59;;;;;;;6.93;4.70;;;5.80;75.30;;;;;;5015321;28;20073;-68
2022/01/10 12:26:26;;;;;;;8.27;4.95;;;5.80;74.40;;;;;;5018866;28;20040;-70
2022/01/10 12:28:57;;;;;;;7.15;5.15;;;5.90;73.80;;;;;;5019848;28;20038;-69
2022/01/10 12:31:25;;;;;;;8.60;4.60;;;5.90;74.10;;;;;;5019379;28;20025;-68
2022/01/10 12:33:52;;;;;;;8.80;5.05;;;5.90;73.70;;;;;;5017715;28;20026;-69
2022/01/10 12:36:20;;;;;;;17.42;12.88;;;6.00;74.20;;;;;;5015315;28;20135;-69
2022/01/10 12:38:55;;;;;;;8.57;5.25;;;6.00;74.70;;;;;;5019364;28;20049;-69
2022/01/10 12:41:20;;;;;;;7.10;3.83;;;6.00;73.30;;;;;;5020794;28;20056;-69
2022/01/10 12:43:48;;;;;;;7.15;4.15;;;6.10;72.80;;;;;;5020199;28;20057;-69
2022/01/10 12:46:18;;;;;;;7.63;4.05;;;6.20;73.20;;;;;;5020545;28;20022;-68
2022/01/10 12:48:50;;;;;;;7.32;3.72;;;6.20;72.50;;;;;;5016489;28;20798;-69
2022/01/10 12:51:20;;;;;;;6.25;4.00;;;6.20;73.10;;;;;;5020236;28;20021;-69